Terminal Aerodrome Forecast
Issued by NWS Missoula, MT

Home | Current Version | Previous Version | Text Only | Print | Product List | Glossary On
Versions: 1 2 3 4 5 6 7 8 9 10 11 12 13 14 15 16 17 18
000
FTUS45 KMSO 200521
TAFBTM
TAF
KBTM 200521Z 2006/2106 12005KT P6SM -SHRA BKN050 OVC070
     FM200700 VRB05KT 5SM -SN BKN030 OVC040
      TEMPO 2007/2009 3SM -SN BR BKN020
     FM200900 VRB03KT P6SM VCSH BKN050
     FM201600 26010G20KT 6SM -SNRA SCT025 OVC030
     FM201900 27008G15KT P6SM VCSH BKN040 OVC050=

USA.gov is the U.S. government's official web portal to all federal, state and local government web resources and services.